createdAt,value
2019-03-06T00:00:01.648Z,91.64
2019-03-06T00:01:01.626Z,91.81
2019-03-06T00:02:01.614Z,92.02
2019-03-06T00:03:01.605Z,91.39
2019-03-06T00:04:01.588Z,91.39
2019-03-06T00:05:01.582Z,91.39
2019-03-06T00:06:01.594Z,91.28
2019-03-06T00:07:01.557Z,91.18
2019-03-06T00:08:01.549Z,91.04
2019-03-06T00:09:01.537Z,91.25
2019-03-06T00:10:01.528Z,90.77
2019-03-06T00:11:01.519Z,91.04
2019-03-06T00:12:01.509Z,90.14
2019-03-06T00:13:01.494Z,90.72
2019-03-06T00:14:01.483Z,89.89
2019-03-06T00:15:01.474Z,90.10
2019-03-06T00:16:01.468Z,90.00
2019-03-06T00:17:01.465Z,90.00
2019-03-06T00:18:01.446Z,90.00
2019-03-06T00:19:01.430Z,89.79
2019-03-06T00:20:01.423Z,90.52
2019-03-06T00:21:01.411Z,90.83
2019-03-06T00:22:01.403Z,90.52
2019-03-06T00:23:02.193Z,90.41
2019-03-06T00:24:01.381Z,90.31
2019-03-06T00:25:01.378Z,90.52
2019-03-06T00:26:01.356Z,90.72
2019-03-06T00:27:01.346Z,90.83
2019-03-06T00:28:01.337Z,90.83
2019-03-06T00:29:01.332Z,90.62
2019-03-06T00:30:01.318Z,89.79
2019-03-06T00:31:01.303Z,90.10
2019-03-06T00:32:01.297Z,89.89
2019-03-06T00:33:01.284Z,90.10
2019-03-06T00:34:01.276Z,89.37
2019-03-06T00:35:01.264Z,89.37
2019-03-06T00:36:01.249Z,89.37
2019-03-06T00:37:01.239Z,89.58
2019-03-06T00:38:01.227Z,89.58
2019-03-06T00:39:01.227Z,88.96
2019-03-06T00:40:01.216Z,88.33
2019-03-06T00:41:01.200Z,88.85
2019-03-06T00:42:01.580Z,88.33
2019-03-06T00:43:01.176Z,88.23
2019-03-06T00:44:01.165Z,87.92
2019-03-06T00:45:01.163Z,88.23
2019-03-06T00:46:01.146Z,88.12
2019-03-06T00:47:01.131Z,87.92
2019-03-06T00:48:01.183Z,88.02
2019-03-06T00:49:01.123Z,88.33
2019-03-06T00:50:01.105Z,88.33
2019-03-06T00:51:01.091Z,88.23
2019-03-06T00:52:01.085Z,88.48
2019-03-06T00:53:01.069Z,88.58
2019-03-06T00:54:01.062Z,88.43
2019-03-06T00:55:01.062Z,88.17
2019-03-06T00:56:01.035Z,88.17
2019-03-06T00:57:01.031Z,88.43
2019-03-06T00:58:01.016Z,88.43
2019-03-06T00:59:01.008Z,88.54
2019-03-06T01:00:00.998Z,88.54
2019-03-06T01:01:00.983Z,88.33
2019-03-06T01:02:00.977Z,88.58
2019-03-06T01:03:00.962Z,88.58
2019-03-06T01:04:00.957Z,88.48
2019-03-06T01:05:00.948Z,88.37
2019-03-06T01:06:00.933Z,87.92
2019-03-06T01:07:00.920Z,88.23
2019-03-06T01:08:00.921Z,88.23
2019-03-06T01:09:00.900Z,88.02
2019-03-06T01:10:00.889Z,88.02
2019-03-06T01:11:00.877Z,87.40
2019-03-06T01:12:00.867Z,87.40
2019-03-06T01:13:00.856Z,87.40
2019-03-06T01:14:00.845Z,87.60
2019-03-06T01:15:00.837Z,87.40
2019-03-06T01:16:00.826Z,87.29
2019-03-06T01:17:00.815Z,87.08
2019-03-06T01:18:00.802Z,86.88
2019-03-06T01:19:00.792Z,87.19
2019-03-06T01:20:00.784Z,87.40
2019-03-06T01:21:00.771Z,87.50
2019-03-06T01:22:00.759Z,87.60
2019-03-06T01:23:00.753Z,88.02
2019-03-06T01:24:00.738Z,87.92
2019-03-06T01:25:00.727Z,88.12
2019-03-06T01:26:00.722Z,88.27
2019-03-06T01:27:00.706Z,88.06
2019-03-06T01:28:00.699Z,88.27
2019-03-06T01:29:00.692Z,88.02
2019-03-06T01:30:00.676Z,88.37
2019-03-06T01:31:00.663Z,88.33
2019-03-06T01:32:00.653Z,88.23
2019-03-06T01:33:00.648Z,88.27
2019-03-06T01:34:00.678Z,88.27
2019-03-06T01:35:00.632Z,88.62
2019-03-06T01:36:00.613Z,88.62
2019-03-06T01:37:00.600Z,88.93
2019-03-06T01:38:00.589Z,88.93
2019-03-06T01:39:00.577Z,88.83
2019-03-06T01:40:00.576Z,89.14
2019-03-06T01:41:00.557Z,89.41
2019-03-06T01:42:00.549Z,88.89
2019-03-06T01:43:00.538Z,89.14
2019-03-06T01:44:00.533Z,89.25
2019-03-06T01:45:00.517Z,89.45
2019-03-06T01:46:00.507Z,88.93
2019-03-06T01:47:00.494Z,89.25
2019-03-06T01:48:00.484Z,89.18
2019-03-06T01:49:00.474Z,89.25
2019-03-06T01:50:00.462Z,89.50
2019-03-06T01:51:00.461Z,90.33
2019-03-06T01:52:00.441Z,90.22
2019-03-06T01:53:00.437Z,89.91
2019-03-06T01:54:00.421Z,90.64
2019-03-06T01:55:00.411Z,90.58
2019-03-06T01:56:00.398Z,90.47
2019-03-06T01:57:00.388Z,91.31
2019-03-06T01:58:00.378Z,91.00
2019-03-06T01:59:00.368Z,91.41
2019-03-06T02:00:00.424Z,92.03
2019-03-06T02:01:00.347Z,91.62
2019-03-06T02:02:00.335Z,91.31
2019-03-06T02:03:00.326Z,91.62
2019-03-06T02:04:00.316Z,91.52
2019-03-06T02:05:00.367Z,91.62
2019-03-06T02:06:00.299Z,91.62
2019-03-06T02:07:00.287Z,91.72
2019-03-06T02:08:00.275Z,91.87
2019-03-06T02:09:00.262Z,91.87
2019-03-06T02:10:00.328Z,91.66
2019-03-06T02:11:00.240Z,92.40
2019-03-06T02:12:00.230Z,92.08
2019-03-06T02:13:00.226Z,92.85
2019-03-06T02:14:00.211Z,92.22
2019-03-06T02:15:00.351Z,92.29
2019-03-06T02:16:00.188Z,92.44
2019-03-06T02:17:00.178Z,93.06
2019-03-06T02:18:00.172Z,93.69
2019-03-06T02:19:00.156Z,93.90
2019-03-06T02:20:00.292Z,93.44
2019-03-06T02:21:00.135Z,93.02
2019-03-06T02:22:00.135Z,92.91
2019-03-06T02:23:00.116Z,92.40
2019-03-06T02:24:00.107Z,92.29
2019-03-06T02:25:00.267Z,93.02
2019-03-06T02:26:00.084Z,92.91
2019-03-06T02:27:00.113Z,92.81
2019-03-06T02:28:00.059Z,92.65
2019-03-06T02:29:00.051Z,92.44
2019-03-06T02:30:00.042Z,92.44
2019-03-06T02:31:00.034Z,92.44
2019-03-06T02:32:00.023Z,93.06
2019-03-06T02:33:00.013Z,93.21
2019-03-06T02:34:00.011Z,93.21
2019-03-06T02:34:59.992Z,93.94
2019-03-06T02:35:59.982Z,93.84
2019-03-06T02:36:59.986Z,93.94
2019-03-06T02:37:59.956Z,93.73
2019-03-06T02:38:59.954Z,94.25
2019-03-06T02:39:59.941Z,94.57
2019-03-06T02:40:59.925Z,94.19
2019-03-06T02:41:59.920Z,94.09
2019-03-06T02:42:59.910Z,95.13
2019-03-06T02:43:59.896Z,94.92
2019-03-06T02:44:59.887Z,95.13
2019-03-06T02:45:59.876Z,95.03
2019-03-06T02:46:59.865Z,95.44
2019-03-06T02:47:59.856Z,94.86
2019-03-06T02:48:59.843Z,95.17
2019-03-06T02:49:59.834Z,95.70
2019-03-06T02:50:59.820Z,95.70
2019-03-06T02:51:59.813Z,95.90
2019-03-06T02:52:59.801Z,95.90
2019-03-06T02:53:59.792Z,96.37
2019-03-06T02:54:59.781Z,96.26
2019-03-06T02:55:59.771Z,95.95
2019-03-06T02:56:59.759Z,96.26
2019-03-06T02:57:59.750Z,96.47
2019-03-06T02:58:59.741Z,96.68
2019-03-06T02:59:59.732Z,96.78
2019-03-06T03:00:59.716Z,97.00
2019-03-06T03:01:59.707Z,96.72
2019-03-06T03:02:59.695Z,97.41
2019-03-06T03:03:59.687Z,97.45
2019-03-06T03:04:59.673Z,97.62
2019-03-06T03:05:59.668Z,97.72
2019-03-06T03:06:59.656Z,97.88
2019-03-06T03:07:59.644Z,98.14
2019-03-06T03:08:59.632Z,97.94
2019-03-06T03:09:59.622Z,98.04
2019-03-06T03:10:59.611Z,98.04
2019-03-06T03:11:59.608Z,97.72
2019-03-06T03:12:59.613Z,97.56
2019-03-06T03:13:59.580Z,98.14
2019-03-06T03:14:59.568Z,97.77
2019-03-06T03:15:59.560Z,98.13
2019-03-06T03:16:59.551Z,97.77
2019-03-06T03:17:59.544Z,97.71
2019-03-06T03:18:59.541Z,97.98
2019-03-06T03:19:59.516Z,98.08
2019-03-06T03:20:59.508Z,97.98
2019-03-06T03:21:59.497Z,98.13
2019-03-06T03:22:59.486Z,98.02
2019-03-06T03:23:59.478Z,98.13
2019-03-06T03:24:59.469Z,98.02
2019-03-06T03:25:59.454Z,98.13
2019-03-06T03:26:59.446Z,98.34
2019-03-06T03:27:59.434Z,97.92
2019-03-06T03:28:59.421Z,98.44
2019-03-06T03:29:59.409Z,98.24
2019-03-06T03:30:59.402Z,98.86
2019-03-06T03:31:59.392Z,98.97
2019-03-06T03:32:59.382Z,98.97
2019-03-06T03:33:59.381Z,98.86
2019-03-06T03:34:59.361Z,99.28
2019-03-06T03:35:59.349Z,99.18
2019-03-06T03:36:59.342Z,99.18
2019-03-06T03:37:59.330Z,98.97
2019-03-06T03:38:59.326Z,98.65
2019-03-06T03:39:59.308Z,98.75
2019-03-06T03:40:59.299Z,99.07
2019-03-06T03:41:59.287Z,99.11
2019-03-06T03:42:59.277Z,99.11
2019-03-06T03:43:59.266Z,98.91
2019-03-06T03:44:59.255Z,99.07
2019-03-06T03:45:59.247Z,99.22
2019-03-06T03:46:59.239Z,99.54
2019-03-06T03:47:59.222Z,99.64
2019-03-06T03:48:59.216Z,99.59
2019-03-06T03:49:59.201Z,99.85
2019-03-06T03:50:59.204Z,99.99
2019-03-06T03:51:59.182Z,99.99
2019-03-06T03:52:59.171Z,99.99
2019-03-06T03:53:59.162Z,99.99
2019-03-06T03:54:59.157Z,99.99
2019-03-06T03:55:59.141Z,99.99
2019-03-06T03:56:59.130Z,99.99
2019-03-06T03:57:59.120Z,99.99
2019-03-06T03:58:59.110Z,99.99
2019-03-06T03:59:59.098Z,99.99
2019-03-06T04:00:59.088Z,99.99
2019-03-06T04:01:59.078Z,99.99
2019-03-06T04:02:59.076Z,99.99
2019-03-06T04:03:59.056Z,99.99
2019-03-06T04:04:59.047Z,99.99
2019-03-06T04:05:59.035Z,99.99
2019-03-06T04:06:59.016Z,99.99
2019-03-06T04:07:59.016Z,99.99
2019-03-06T04:08:59.007Z,99.99
2019-03-06T04:09:58.994Z,99.99
2019-03-06T04:10:58.983Z,99.99
2019-03-06T04:11:58.981Z,99.99
2019-03-06T04:12:58.959Z,99.99
2019-03-06T04:13:58.951Z,99.99
2019-03-06T04:14:58.942Z,99.99
2019-03-06T04:15:58.929Z,99.99
2019-03-06T04:16:58.925Z,99.99
2019-03-06T04:17:58.910Z,99.99
2019-03-06T04:18:58.903Z,99.99
2019-03-06T04:19:58.889Z,99.99
2019-03-06T04:20:58.879Z,99.99
2019-03-06T04:21:58.873Z,99.99
2019-03-06T04:22:58.862Z,99.99
2019-03-06T04:23:58.845Z,99.99
2019-03-06T04:24:58.840Z,99.99
2019-03-06T04:25:58.828Z,99.99
2019-03-06T04:26:58.818Z,99.99
2019-03-06T04:27:58.806Z,99.99
2019-03-06T04:28:58.794Z,99.99
2019-03-06T04:29:58.784Z,99.99
2019-03-06T04:30:58.772Z,99.99
2019-03-06T04:31:58.763Z,99.99
2019-03-06T04:32:58.753Z,99.88
2019-03-06T04:33:58.742Z,99.93
2019-03-06T04:34:58.731Z,99.88
2019-03-06T04:35:58.723Z,99.46
2019-03-06T04:36:58.710Z,99.46
2019-03-06T04:37:58.699Z,99.66
2019-03-06T04:38:58.688Z,99.35
2019-03-06T04:39:58.679Z,98.72
2019-03-06T04:40:58.667Z,98.98
2019-03-06T04:41:58.657Z,99.29
2019-03-06T04:42:58.645Z,99.51
2019-03-06T04:43:58.636Z,99.61
2019-03-06T04:44:58.622Z,99.92
2019-03-06T04:45:58.613Z,99.92
2019-03-06T04:46:58.606Z,99.92
2019-03-06T04:47:58.594Z,99.99
2019-03-06T04:48:58.584Z,99.82
2019-03-06T04:49:58.575Z,99.99
2019-03-06T04:50:58.562Z,99.99
2019-03-06T04:51:58.554Z,99.92
2019-03-06T04:52:58.546Z,99.99
2019-03-06T04:53:58.534Z,99.99
2019-03-06T04:54:58.523Z,99.99
2019-03-06T04:55:58.509Z,99.99
2019-03-06T04:56:58.503Z,99.99
2019-03-06T04:57:58.489Z,99.99
2019-03-06T04:58:58.480Z,99.99
2019-03-06T04:59:58.468Z,99.99
2019-03-06T05:00:58.456Z,99.99
2019-03-06T05:01:58.451Z,99.99
2019-03-06T05:02:58.439Z,99.99
2019-03-06T05:03:58.427Z,99.99
2019-03-06T05:04:58.415Z,99.99
2019-03-06T05:05:58.400Z,99.99
2019-03-06T05:06:58.405Z,99.99
2019-03-06T05:07:58.384Z,99.99
2019-03-06T05:08:58.375Z,99.99
2019-03-06T05:09:58.366Z,99.99
2019-03-06T05:10:58.351Z,99.99
2019-03-06T05:11:58.341Z,99.99
2019-03-06T05:12:58.330Z,99.99
2019-03-06T05:13:58.320Z,99.99
2019-03-06T05:14:58.307Z,99.99
2019-03-06T05:15:58.302Z,99.99
2019-03-06T05:16:58.292Z,99.99
2019-03-06T05:17:58.284Z,99.99
2019-03-06T05:18:58.270Z,99.99
2019-03-06T05:19:58.262Z,99.99
2019-03-06T05:20:58.246Z,99.99
2019-03-06T05:21:58.239Z,99.99
2019-03-06T05:22:58.224Z,99.99
2019-03-06T05:23:58.216Z,99.99
2019-03-06T05:24:58.206Z,99.99
2019-03-06T05:25:58.193Z,99.99
2019-03-06T05:26:58.185Z,99.99
2019-03-06T05:27:58.173Z,99.99
2019-03-06T05:28:58.162Z,99.99
2019-03-06T05:29:58.152Z,99.99
2019-03-06T05:30:58.143Z,99.99
2019-03-06T05:31:58.130Z,99.99
2019-03-06T05:32:58.119Z,99.99
2019-03-06T05:33:58.106Z,99.99
2019-03-06T05:34:58.097Z,99.99
2019-03-06T05:35:58.088Z,99.99
2019-03-06T05:36:58.080Z,99.99
2019-03-06T05:37:58.064Z,99.99
2019-03-06T05:38:58.055Z,99.99
2019-03-06T05:39:58.047Z,99.99
2019-03-06T05:40:58.040Z,99.99
2019-03-06T05:41:58.027Z,99.99
2019-03-06T05:42:58.016Z,99.99
2019-03-06T05:43:58.004Z,99.99
2019-03-06T05:44:57.995Z,99.99
2019-03-06T05:45:57.984Z,99.99
2019-03-06T05:46:57.975Z,99.99
2019-03-06T05:47:57.963Z,99.99
2019-03-06T05:48:57.956Z,99.99
2019-03-06T05:49:57.945Z,99.99
2019-03-06T05:50:57.932Z,99.99
2019-03-06T05:51:57.923Z,99.99
2019-03-06T05:52:57.910Z,99.99
2019-03-06T05:53:57.902Z,99.99
2019-03-06T05:54:57.891Z,99.99
2019-03-06T05:55:57.906Z,99.99
2019-03-06T05:56:57.881Z,99.99
2019-03-06T05:57:57.860Z,99.99
2019-03-06T05:58:57.846Z,99.99
2019-03-06T05:59:57.837Z,99.99
2019-03-06T06:00:57.829Z,99.99
2019-03-06T06:01:57.821Z,99.99
2019-03-06T06:02:57.809Z,99.99
2019-03-06T06:03:57.797Z,99.99
2019-03-06T06:04:57.786Z,99.99
2019-03-06T06:05:57.773Z,99.99
2019-03-06T06:06:57.764Z,99.99
2019-03-06T06:07:57.799Z,99.99
2019-03-06T06:08:57.749Z,99.99
2019-03-06T06:09:57.732Z,99.99
2019-03-06T06:10:57.719Z,99.99
2019-03-06T06:11:57.711Z,99.99
2019-03-06T06:12:57.699Z,99.99
2019-03-06T06:13:57.687Z,99.99
2019-03-06T06:14:57.678Z,99.99
2019-03-06T06:15:57.667Z,99.99
2019-03-06T06:16:57.656Z,99.99
2019-03-06T06:17:57.643Z,99.99
2019-03-06T06:18:57.635Z,99.99
2019-03-06T06:19:57.625Z,99.99
2019-03-06T06:20:57.614Z,99.99
2019-03-06T06:21:57.610Z,99.99
2019-03-06T06:22:57.600Z,99.99
2019-03-06T06:23:57.585Z,99.99
2019-03-06T06:24:57.577Z,99.99
2019-03-06T06:25:57.567Z,99.99
2019-03-06T06:26:57.553Z,99.99
2019-03-06T06:27:57.540Z,99.99
2019-03-06T06:28:57.535Z,99.99
2019-03-06T06:29:57.517Z,99.99
2019-03-06T06:30:57.507Z,99.99
2019-03-06T06:31:57.502Z,99.99
2019-03-06T06:32:57.491Z,99.99
2019-03-06T06:33:57.481Z,99.99
2019-03-06T06:34:57.476Z,99.84
2019-03-06T06:35:57.479Z,99.99
2019-03-06T06:36:57.451Z,99.99
2019-03-06T06:37:57.495Z,99.69
2019-03-06T06:38:57.431Z,99.27
2019-03-06T06:39:57.418Z,99.48
2019-03-06T06:40:57.409Z,98.65
2019-03-06T06:41:57.400Z,98.82
2019-03-06T06:42:57.391Z,98.08
2019-03-06T06:43:57.382Z,97.41
2019-03-06T06:44:57.368Z,97.22
2019-03-06T06:45:57.355Z,95.99
2019-03-06T06:46:57.351Z,93.62
2019-03-06T06:47:57.335Z,91.86
2019-03-06T06:48:57.333Z,90.23
2019-03-06T06:49:57.312Z,86.76
2019-03-06T06:51:01.664Z,84.44
2019-03-06T06:51:58.295Z,83.31
2019-03-06T06:52:57.284Z,82.44
2019-03-06T06:53:57.272Z,81.68
2019-03-06T06:54:57.259Z,81.64
2019-03-06T06:55:57.245Z,80.46
2019-03-06T06:56:57.232Z,78.36
2019-03-06T06:57:57.222Z,78.15
2019-03-06T06:58:57.212Z,77.64
2019-03-06T06:59:57.201Z,77.04
2019-03-06T07:00:57.192Z,76.70
2019-03-06T07:01:57.181Z,74.95
2019-03-06T07:02:57.176Z,75.05
2019-03-06T07:03:57.159Z,75.01
2019-03-06T07:04:57.146Z,74.08
2019-03-06T07:05:57.139Z,73.22
2019-03-06T07:06:57.127Z,73.50
2019-03-06T07:07:57.115Z,74.63
2019-03-06T07:08:57.104Z,74.50
2019-03-06T07:09:57.098Z,74.22
2019-03-06T07:10:57.083Z,74.98
2019-03-06T07:11:57.072Z,74.53
2019-03-06T07:12:57.062Z,74.98
2019-03-06T07:13:57.052Z,76.32
2019-03-06T07:14:57.041Z,76.32
2019-03-06T07:15:57.030Z,76.50
2019-03-06T07:16:57.632Z,77.94
2019-03-06T07:17:57.010Z,77.84
2019-03-06T07:18:56.998Z,77.33
2019-03-06T07:19:56.988Z,77.84
2019-03-06T07:20:56.976Z,77.60
2019-03-06T07:21:56.965Z,76.91
2019-03-06T07:22:56.954Z,77.67
2019-03-06T07:23:56.943Z,79.77
2019-03-06T07:24:56.934Z,80.36
2019-03-06T07:25:56.922Z,80.26
2019-03-06T07:26:56.910Z,79.43
2019-03-06T07:27:56.900Z,80.19
2019-03-06T07:28:56.891Z,80.26
2019-03-06T07:29:56.885Z,78.05
2019-03-06T07:30:56.872Z,77.67
2019-03-06T07:31:56.857Z,76.22
2019-03-06T07:32:56.848Z,77.22
2019-03-06T07:33:56.839Z,75.91
2019-03-06T07:34:56.825Z,77.43
2019-03-06T07:35:56.815Z,78.25
2019-03-06T07:36:56.806Z,78.25
2019-03-06T07:37:56.793Z,79.53
2019-03-06T07:38:56.785Z,79.63
2019-03-06T07:39:56.771Z,80.26
2019-03-06T07:40:56.761Z,81.02
2019-03-06T07:41:56.750Z,81.64
2019-03-06T07:42:56.742Z,80.95
2019-03-06T07:43:56.731Z,82.23
2019-03-06T07:44:56.721Z,83.47
2019-03-06T07:45:56.709Z,83.47
2019-03-06T07:46:56.697Z,83.47
2019-03-06T07:47:56.686Z,84.65
2019-03-06T07:48:56.677Z,84.34
2019-03-06T07:49:56.669Z,84.44
2019-03-06T07:50:56.657Z,84.13
2019-03-06T07:51:56.647Z,84.65
2019-03-06T07:52:56.632Z,84.61
2019-03-06T07:53:56.626Z,82.92
2019-03-06T07:54:56.614Z,81.87
2019-03-06T07:55:56.602Z,79.73
2019-03-06T07:56:56.591Z,77.49
2019-03-06T07:57:56.578Z,76.87
2019-03-06T07:58:56.569Z,77.08
2019-03-06T07:59:56.558Z,75.46
2019-03-06T08:00:56.547Z,76.90
2019-03-06T08:01:56.535Z,77.22
2019-03-06T08:02:56.527Z,76.98
2019-03-06T08:03:56.516Z,75.46
2019-03-06T08:04:56.506Z,73.30
2019-03-06T08:05:56.492Z,74.15
2019-03-06T08:06:56.483Z,74.84
2019-03-06T08:07:56.473Z,76.56
2019-03-06T08:08:56.461Z,76.04
2019-03-06T08:09:56.449Z,75.01
2019-03-06T08:10:56.440Z,70.90
2019-03-06T08:11:56.429Z,69.09
2019-03-06T08:12:56.418Z,67.96
2019-03-06T08:13:56.408Z,65.84
2019-03-06T08:14:56.398Z,64.45
2019-03-06T08:15:56.438Z,64.28
2019-03-06T08:16:56.378Z,64.45
2019-03-06T08:17:56.366Z,61.93
2019-03-06T08:18:56.354Z,61.40
2019-03-06T08:19:56.344Z,60.96
2019-03-06T08:20:56.335Z,60.44
2019-03-06T08:21:56.323Z,59.83
2019-03-06T08:22:56.313Z,60.22
2019-03-06T08:23:56.350Z,61.89
2019-03-06T08:24:56.291Z,63.12
2019-03-06T08:25:56.281Z,62.96
2019-03-06T08:26:56.268Z,61.40
2019-03-06T08:27:56.259Z,61.19
2019-03-06T08:28:56.251Z,60.17
2019-03-06T08:29:56.238Z,60.75
2019-03-06T08:30:56.226Z,59.63
2019-03-06T08:31:56.214Z,59.83
2019-03-06T08:32:56.202Z,59.63
2019-03-06T08:33:56.193Z,61.38
2019-03-06T08:34:56.186Z,61.45
2019-03-06T08:35:56.171Z,61.40
2019-03-06T08:36:56.161Z,58.75
2019-03-06T08:37:56.151Z,58.73
2019-03-06T08:38:56.138Z,56.94
2019-03-06T08:39:56.129Z,56.12
2019-03-06T08:41:03.942Z,56.96
2019-03-06T08:41:57.104Z,56.56
2019-03-06T08:42:56.102Z,57.50
2019-03-06T08:43:56.086Z,58.29
2019-03-06T08:44:56.082Z,57.65
2019-03-06T08:45:56.065Z,55.82
2019-03-06T08:46:56.058Z,56.32
2019-03-06T08:47:56.044Z,55.91
2019-03-06T08:48:56.031Z,56.48
2019-03-06T08:49:56.024Z,58.11
2019-03-06T08:50:56.010Z,57.60
2019-03-06T08:51:56.001Z,57.63
2019-03-06T08:52:55.989Z,58.25
2019-03-06T08:53:55.978Z,58.14
2019-03-06T08:54:55.966Z,55.05
2019-03-06T08:55:55.958Z,55.07
2019-03-06T08:56:55.953Z,55.58
2019-03-06T08:57:55.935Z,55.69
2019-03-06T08:58:55.925Z,55.87
2019-03-06T08:59:55.916Z,54.24
2019-03-06T09:00:55.902Z,54.87
2019-03-06T09:02:00.533Z,57.88
2019-03-06T09:02:56.882Z,60.03
2019-03-06T09:03:55.869Z,61.50
2019-03-06T09:04:55.860Z,62.36
2019-03-06T09:05:55.848Z,60.21
2019-03-06T09:06:55.839Z,59.32
2019-03-06T09:07:55.826Z,62.01
2019-03-06T09:08:55.817Z,61.29
2019-03-06T09:09:55.806Z,60.28
2019-03-06T09:11:02.501Z,57.50
2019-03-06T09:11:56.789Z,54.94
2019-03-06T09:12:55.777Z,55.84
2019-03-06T09:13:55.765Z,55.58
2019-03-06T09:14:55.755Z,56.02
2019-03-06T09:15:55.745Z,57.09
2019-03-06T09:16:55.734Z,59.23
2019-03-06T09:17:55.724Z,58.32
2019-03-06T09:18:55.708Z,58.50
2019-03-06T09:19:55.699Z,58.60
2019-03-06T09:20:55.687Z,57.57
2019-03-06T09:21:55.678Z,57.52
2019-03-06T09:22:55.667Z,56.48
2019-03-06T09:23:55.659Z,55.13
2019-03-06T09:24:55.649Z,55.43
2019-03-06T09:25:55.635Z,55.71
2019-03-06T09:26:55.623Z,55.43
2019-03-06T09:27:55.615Z,56.35
2019-03-06T09:29:00.970Z,55.58
2019-03-06T09:29:56.591Z,53.98
2019-03-06T09:30:55.581Z,54.69
2019-03-06T09:31:55.576Z,55.56
2019-03-06T09:32:55.560Z,56.07
2019-03-06T09:33:55.551Z,55.99
2019-03-06T09:34:55.541Z,56.78
2019-03-06T09:35:55.535Z,55.56
2019-03-06T09:36:55.520Z,57.04
2019-03-06T09:37:55.509Z,57.14
2019-03-06T09:38:55.502Z,57.83
2019-03-06T09:39:55.488Z,56.71
2019-03-06T09:40:55.473Z,55.56
2019-03-06T09:41:55.462Z,54.92
2019-03-06T09:42:55.457Z,54.51
2019-03-06T09:43:55.446Z,55.61
2019-03-06T09:44:55.468Z,55.10
2019-03-06T09:45:55.426Z,54.18
2019-03-06T09:46:55.417Z,54.11
2019-03-06T09:47:55.399Z,54.08
2019-03-06T09:48:55.432Z,53.65
2019-03-06T09:49:55.382Z,53.02
2019-03-06T09:50:55.369Z,53.11
2019-03-06T09:51:55.363Z,52.71
2019-03-06T09:52:55.370Z,53.47
2019-03-06T09:53:55.340Z,53.96
2019-03-06T09:54:55.328Z,53.47
2019-03-06T09:55:55.320Z,53.59
2019-03-06T09:56:55.331Z,54.13
2019-03-06T09:57:55.320Z,53.14
2019-03-06T09:58:55.346Z,53.90
2019-03-06T09:59:55.272Z,53.85
2019-03-06T10:00:55.261Z,53.02
2019-03-06T10:01:55.253Z,53.11
2019-03-06T10:02:55.242Z,51.28
2019-03-06T10:03:55.230Z,52.94
2019-03-06T10:04:55.219Z,52.30
2019-03-06T10:05:55.210Z,51.14
2019-03-06T10:06:55.238Z,51.29
2019-03-06T10:07:55.197Z,51.21
2019-03-06T10:08:55.179Z,50.78
2019-03-06T10:09:59.016Z,53.27
2019-03-06T10:10:57.742Z,53.88
2019-03-06T10:11:55.145Z,52.40
2019-03-06T10:12:55.138Z,51.59
2019-03-06T10:13:55.142Z,51.77
2019-03-06T10:14:55.112Z,51.03
2019-03-06T10:15:55.103Z,50.73
2019-03-06T10:16:55.090Z,51.01
2019-03-06T10:17:55.083Z,51.11
2019-03-06T10:18:55.105Z,49.51
2019-03-06T10:19:55.055Z,51.18
2019-03-06T10:20:55.050Z,48.80
2019-03-06T10:21:55.037Z,47.75
2019-03-06T10:22:59.652Z,46.73
2019-03-06T10:23:55.019Z,47.19
2019-03-06T10:24:55.774Z,46.43
2019-03-06T10:25:55.026Z,46.30
2019-03-06T10:26:55.028Z,46.12
2019-03-06T10:27:54.977Z,46.25
2019-03-06T10:28:54.996Z,47.64
2019-03-06T10:29:54.992Z,47.08
2019-03-06T10:31:02.034Z,47.77
2019-03-06T10:31:55.934Z,47.86
2019-03-06T10:32:54.954Z,50.62
2019-03-06T10:33:54.955Z,49.38
2019-03-06T10:34:55.214Z,48.85
2019-03-06T10:35:54.912Z,48.31
2019-03-06T10:36:54.876Z,49.22
2019-03-06T10:37:54.868Z,49.53
2019-03-06T10:38:54.859Z,47.96
2019-03-06T10:39:54.847Z,48.16
2019-03-06T10:40:54.837Z,47.13
2019-03-06T10:41:54.824Z,47.10
2019-03-06T10:42:54.813Z,47.88
2019-03-06T10:43:54.803Z,47.94
2019-03-06T10:44:54.834Z,47.86
2019-03-06T10:45:54.814Z,47.74
2019-03-06T10:46:54.805Z,46.62
2019-03-06T10:47:54.761Z,47.81
2019-03-06T10:48:54.752Z,46.75
2019-03-06T10:49:54.741Z,45.72
2019-03-06T10:50:54.732Z,44.20
2019-03-06T10:51:54.723Z,44.30
2019-03-06T10:52:54.712Z,45.23
2019-03-06T10:53:54.737Z,46.06
2019-03-06T10:54:54.690Z,46.04
2019-03-06T10:55:54.679Z,45.43
2019-03-06T10:56:54.677Z,45.19
2019-03-06T10:57:54.658Z,44.40
2019-03-06T10:58:54.644Z,45.17
2019-03-06T10:59:54.633Z,44.62
2019-03-06T11:00:54.635Z,45.36
2019-03-06T11:01:54.613Z,44.81
2019-03-06T11:02:54.606Z,44.99
2019-03-06T11:03:54.591Z,43.47
2019-03-06T11:04:54.579Z,43.67
2019-03-06T11:05:54.569Z,43.57
2019-03-06T11:06:54.556Z,42.60
2019-03-06T11:07:54.545Z,44.56
2019-03-06T11:08:54.533Z,44.24
2019-03-06T11:09:54.528Z,45.66
2019-03-06T11:10:54.516Z,43.71
2019-03-06T11:11:54.504Z,43.35
2019-03-06T11:12:54.492Z,44.97
2019-03-06T11:13:54.484Z,42.54
2019-03-06T11:14:54.475Z,44.06
2019-03-06T11:15:55.940Z,43.69
2019-03-06T11:16:54.452Z,45.24
2019-03-06T11:17:54.442Z,44.51
2019-03-06T11:18:54.433Z,44.53
2019-03-06T11:19:54.421Z,44.71
2019-03-06T11:20:54.409Z,44.63
2019-03-06T11:21:54.401Z,46.25
2019-03-06T11:22:54.387Z,46.36
2019-03-06T11:23:54.375Z,46.84
2019-03-06T11:24:54.368Z,46.53
2019-03-06T11:25:54.356Z,46.64
2019-03-06T11:26:54.349Z,45.26
2019-03-06T11:27:54.336Z,45.30
2019-03-06T11:28:54.321Z,45.30
2019-03-06T11:29:54.312Z,45.40
2019-03-06T11:30:54.305Z,44.57
2019-03-06T11:31:54.293Z,46.09
2019-03-06T11:32:54.778Z,45.67
2019-03-06T11:33:54.268Z,45.15
2019-03-06T11:34:54.256Z,44.24
2019-03-06T11:35:54.247Z,43.91
2019-03-06T11:36:54.236Z,45.36
2019-03-06T11:37:54.227Z,43.75
2019-03-06T11:38:54.214Z,43.44
2019-03-06T11:39:54.204Z,43.79
2019-03-06T11:40:54.194Z,42.27
2019-03-06T11:41:54.186Z,43.59
2019-03-06T11:42:54.175Z,43.63
2019-03-06T11:43:54.162Z,42.41
2019-03-06T11:44:54.150Z,42.22
2019-03-06T11:45:54.144Z,43.75
2019-03-06T11:46:54.127Z,43.35
2019-03-06T11:47:54.116Z,43.23
2019-03-06T11:48:54.112Z,42.59
2019-03-06T11:49:54.096Z,41.86
2019-03-06T11:50:54.085Z,41.25
2019-03-06T11:51:54.075Z,42.37
2019-03-06T11:52:54.068Z,41.38
2019-03-06T11:53:54.054Z,43.02
2019-03-06T11:54:54.044Z,42.39
2019-03-06T11:55:54.034Z,41.19
2019-03-06T11:56:54.023Z,43.77
2019-03-06T11:57:54.010Z,44.08
2019-03-06T11:58:53.999Z,44.57
2019-03-06T11:59:53.990Z,43.47
2019-03-06T12:00:53.980Z,44.59
2019-03-06T12:01:53.968Z,43.55
2019-03-06T12:02:53.957Z,43.55
2019-03-06T12:03:53.944Z,43.77
2019-03-06T12:04:53.937Z,44.36
2019-03-06T12:05:53.929Z,43.23
2019-03-06T12:06:53.958Z,42.68
2019-03-06T12:07:53.944Z,42.17
2019-03-06T12:08:53.893Z,43.24
2019-03-06T12:09:53.883Z,41.30
2019-03-06T12:10:53.869Z,41.60
2019-03-06T12:11:53.860Z,41.82
2019-03-06T12:12:53.852Z,40.89
2019-03-06T12:13:53.838Z,40.18
2019-03-06T12:14:53.828Z,41.16
2019-03-06T12:15:53.818Z,40.51
2019-03-06T12:16:53.808Z,38.55
2019-03-06T12:17:53.801Z,38.51
2019-03-06T12:18:53.802Z,37.28
2019-03-06T12:19:53.775Z,36.86
2019-03-06T12:20:53.763Z,36.47
2019-03-06T12:21:53.753Z,38.59
2019-03-06T12:22:53.744Z,36.84
2019-03-06T12:23:53.730Z,37.95
2019-03-06T12:24:53.720Z,37.18
2019-03-06T12:25:53.713Z,37.92
2019-03-06T12:26:53.700Z,37.42
2019-03-06T12:27:53.691Z,38.65
2019-03-06T12:28:53.678Z,38.01
2019-03-06T12:29:53.671Z,37.40
2019-03-06T12:30:53.662Z,38.63
2019-03-06T12:31:53.648Z,37.42
2019-03-06T12:32:53.639Z,39.21
2019-03-06T12:33:53.629Z,40.75
2019-03-06T12:34:53.616Z,40.85
2019-03-06T12:35:53.607Z,40.85
2019-03-06T12:36:53.595Z,40.81
2019-03-06T12:37:53.585Z,40.20
2019-03-06T12:38:53.572Z,39.80
2019-03-06T12:39:53.563Z,39.36
2019-03-06T12:40:53.555Z,38.99
2019-03-06T12:41:53.546Z,40.41
2019-03-06T12:42:53.529Z,40.73
2019-03-06T12:43:53.518Z,40.91
2019-03-06T12:44:53.510Z,40.49
2019-03-06T12:45:53.501Z,38.87
2019-03-06T12:46:53.489Z,39.29
2019-03-06T12:47:56.086Z,40.41
2019-03-06T12:48:53.466Z,40.47
2019-03-06T12:49:53.457Z,40.69
2019-03-06T12:50:56.356Z,40.27
2019-03-06T12:51:54.720Z,40.09